sensor_id;sensor_type;location;lat;lon;timestamp;P1;durP1;ratioP1;P2;durP2;ratioP2
35897;SDS011;21997;47.118;15.346;2022-10-15T00:00:34;34.73;;;26.17;;
35897;SDS011;21997;47.118;15.346;2022-10-15T00:03:00;34.73;;;27.20;;
35897;SDS011;21997;47.118;15.346;2022-10-15T00:05:25;35.40;;;26.57;;
35897;SDS011;21997;47.118;15.346;2022-10-15T00:07:51;33.93;;;26.23;;
35897;SDS011;21997;47.118;15.346;2022-10-15T00:10:17;32.53;;;25.67;;
35897;SDS011;21997;47.118;15.346;2022-10-15T00:12:42;35.33;;;26.77;;
35897;SDS011;21997;47.118;15.346;2022-10-15T00:15:08;36.33;;;25.77;;
35897;SDS011;21997;47.118;15.346;2022-10-15T00:17:34;34.97;;;25.63;;
35897;SDS011;21997;47.118;15.346;2022-10-15T00:20:00;33.43;;;25.73;;
35897;SDS011;21997;47.118;15.346;2022-10-15T00:22:26;36.23;;;26.47;;
35897;SDS011;21997;47.118;15.346;2022-10-15T00:24:51;36.13;;;26.67;;
35897;SDS011;21997;47.118;15.346;2022-10-15T00:27:17;33.47;;;25.73;;
35897;SDS011;21997;47.118;15.346;2022-10-15T00:29:42;34.53;;;25.97;;
35897;SDS011;21997;47.118;15.346;2022-10-15T00:32:08;30.73;;;23.93;;
35897;SDS011;21997;47.118;15.346;2022-10-15T00:34:33;32.27;;;25.67;;
35897;SDS011;21997;47.118;15.346;2022-10-15T00:36:58;32.57;;;25.03;;
35897;SDS011;21997;47.118;15.346;2022-10-15T00:39:24;32.97;;;26.87;;
35897;SDS011;21997;47.118;15.346;2022-10-15T00:41:49;32.83;;;25.83;;
35897;SDS011;21997;47.118;15.346;2022-10-15T00:46:52;31.17;;;25.07;;
35897;SDS011;21997;47.118;15.346;2022-10-15T00:49:29;36.37;;;25.03;;
35897;SDS011;21997;47.118;15.346;2022-10-15T00:52:01;35.23;;;24.97;;
35897;SDS011;21997;47.118;15.346;2022-10-15T00:54:31;38.03;;;26.50;;
35897;SDS011;21997;47.118;15.346;2022-10-15T00:57:00;32.70;;;25.67;;
35897;SDS011;21997;47.118;15.346;2022-10-15T00:59:25;36.03;;;26.10;;
35897;SDS011;21997;47.118;15.346;2022-10-15T01:01:52;34.63;;;25.50;;
35897;SDS011;21997;47.118;15.346;2022-10-15T01:04:18;37.73;;;26.97;;
35897;SDS011;21997;47.118;15.346;2022-10-15T01:06:44;33.00;;;27.43;;
35897;SDS011;21997;47.118;15.346;2022-10-15T01:09:10;36.33;;;27.37;;
35897;SDS011;21997;47.118;15.346;2022-10-15T01:14:30;37.93;;;27.27;;
35897;SDS011;21997;47.118;15.346;2022-10-15T01:31:09;36.50;;;26.47;;
35897;SDS011;21997;47.118;15.346;2022-10-15T01:33:48;37.43;;;27.67;;
35897;SDS011;21997;47.118;15.346;2022-10-15T01:39:00;35.23;;;27.23;;
35897;SDS011;21997;47.118;15.346;2022-10-15T01:44:03;38.70;;;26.30;;
35897;SDS011;21997;47.118;15.346;2022-10-15T01:46:38;38.40;;;26.13;;
35897;SDS011;21997;47.118;15.346;2022-10-15T01:49:06;39.23;;;28.47;;
35897;SDS011;21997;47.118;15.346;2022-10-15T01:51:33;35.23;;;27.90;;
35897;SDS011;21997;47.118;15.346;2022-10-15T01:54:01;38.97;;;27.03;;
35897;SDS011;21997;47.118;15.346;2022-10-15T01:56:29;34.13;;;26.67;;
35897;SDS011;21997;47.118;15.346;2022-10-15T01:58:57;36.30;;;26.60;;
35897;SDS011;21997;47.118;15.346;2022-10-15T02:01:22;36.20;;;26.63;;
35897;SDS011;21997;47.118;15.346;2022-10-15T02:03:48;38.67;;;28.30;;
35897;SDS011;21997;47.118;15.346;2022-10-15T02:06:25;41.73;;;27.83;;
35897;SDS011;21997;47.118;15.346;2022-10-15T02:11:19;34.00;;;26.77;;
35897;SDS011;21997;47.118;15.346;2022-10-15T02:13:56;35.37;;;25.80;;
35897;SDS011;21997;47.118;15.346;2022-10-15T02:16:27;37.07;;;27.63;;
35897;SDS011;21997;47.118;15.346;2022-10-15T02:21:45;41.87;;;27.33;;
35897;SDS011;21997;47.118;15.346;2022-10-15T02:24:32;36.63;;;28.03;;
35897;SDS011;21997;47.118;15.346;2022-10-15T02:27:00;32.33;;;24.43;;
35897;SDS011;21997;47.118;15.346;2022-10-15T02:29:26;38.13;;;26.47;;
35897;SDS011;21997;47.118;15.346;2022-10-15T02:31:54;33.87;;;25.67;;
35897;SDS011;21997;47.118;15.346;2022-10-15T02:34:21;38.47;;;27.07;;
35897;SDS011;21997;47.118;15.346;2022-10-15T02:36:50;37.23;;;27.70;;
35897;SDS011;21997;47.118;15.346;2022-10-15T02:39:20;39.13;;;27.13;;
35897;SDS011;21997;47.118;15.346;2022-10-15T02:41:48;37.37;;;26.60;;
35897;SDS011;21997;47.118;15.346;2022-10-15T02:44:13;34.17;;;26.23;;
35897;SDS011;21997;47.118;15.346;2022-10-15T02:46:39;40.03;;;29.00;;
35897;SDS011;21997;47.118;15.346;2022-10-15T02:49:04;36.53;;;27.67;;
35897;SDS011;21997;47.118;15.346;2022-10-15T02:51:31;40.27;;;26.83;;
35897;SDS011;21997;47.118;15.346;2022-10-15T02:53:57;37.00;;;27.13;;
35897;SDS011;21997;47.118;15.346;2022-10-15T02:56:22;35.03;;;26.63;;
35897;SDS011;21997;47.118;15.346;2022-10-15T02:58:47;36.03;;;27.80;;
35897;SDS011;21997;47.118;15.346;2022-10-15T03:01:13;40.07;;;27.53;;
35897;SDS011;21997;47.118;15.346;2022-10-15T03:03:38;33.73;;;26.77;;
35897;SDS011;21997;47.118;15.346;2022-10-15T03:06:04;34.00;;;26.67;;
35897;SDS011;21997;47.118;15.346;2022-10-15T03:08:30;37.33;;;28.33;;
35897;SDS011;21997;47.118;15.346;2022-10-15T03:10:55;37.07;;;26.63;;
35897;SDS011;21997;47.118;15.346;2022-10-15T03:13:24;40.03;;;28.73;;
35897;SDS011;21997;47.118;15.346;2022-10-15T03:15:49;34.03;;;26.53;;
35897;SDS011;21997;47.118;15.346;2022-10-15T03:18:15;31.67;;;26.53;;
35897;SDS011;21997;47.118;15.346;2022-10-15T03:20:40;37.77;;;27.40;;
35897;SDS011;21997;47.118;15.346;2022-10-15T03:23:05;39.37;;;27.57;;
35897;SDS011;21997;47.118;15.346;2022-10-15T03:25:31;34.00;;;25.70;;
35897;SDS011;21997;47.118;15.346;2022-10-15T03:27:56;30.93;;;26.20;;
35897;SDS011;21997;47.118;15.346;2022-10-15T03:30:21;32.60;;;25.73;;
35897;SDS011;21997;47.118;15.346;2022-10-15T03:32:47;34.17;;;26.83;;
35897;SDS011;21997;47.118;15.346;2022-10-15T03:35:12;36.43;;;27.17;;
35897;SDS011;21997;47.118;15.346;2022-10-15T03:37:38;35.50;;;26.47;;
35897;SDS011;21997;47.118;15.346;2022-10-15T03:40:03;37.67;;;27.30;;
35897;SDS011;21997;47.118;15.346;2022-10-15T03:42:29;34.97;;;26.40;;
35897;SDS011;21997;47.118;15.346;2022-10-15T03:44:54;33.17;;;26.23;;
35897;SDS011;21997;47.118;15.346;2022-10-15T03:47:19;35.43;;;26.20;;
35897;SDS011;21997;47.118;15.346;2022-10-15T03:49:45;34.97;;;25.00;;
35897;SDS011;21997;47.118;15.346;2022-10-15T03:52:10;35.20;;;25.23;;
35897;SDS011;21997;47.118;15.346;2022-10-15T03:54:36;33.87;;;26.27;;
35897;SDS011;21997;47.118;15.346;2022-10-15T03:57:01;36.00;;;26.03;;
35897;SDS011;21997;47.118;15.346;2022-10-15T03:59:26;32.87;;;24.97;;
35897;SDS011;21997;47.118;15.346;2022-10-15T04:01:52;38.43;;;27.57;;
35897;SDS011;21997;47.118;15.346;2022-10-15T04:04:17;34.73;;;24.87;;
35897;SDS011;21997;47.118;15.346;2022-10-15T04:06:42;36.60;;;25.53;;
35897;SDS011;21997;47.118;15.346;2022-10-15T04:09:11;35.00;;;26.90;;
35897;SDS011;21997;47.118;15.346;2022-10-15T04:11:37;34.30;;;26.57;;
35897;SDS011;21997;47.118;15.346;2022-10-15T04:14:03;34.20;;;24.70;;
35897;SDS011;21997;47.118;15.346;2022-10-15T04:16:29;34.07;;;26.30;;
35897;SDS011;21997;47.118;15.346;2022-10-15T04:18:54;34.80;;;26.23;;
35897;SDS011;21997;47.118;15.346;2022-10-15T04:21:21;36.07;;;26.93;;
35897;SDS011;21997;47.118;15.346;2022-10-15T04:23:47;34.80;;;26.23;;
35897;SDS011;21997;47.118;15.346;2022-10-15T04:26:12;34.87;;;27.00;;
35897;SDS011;21997;47.118;15.346;2022-10-15T04:28:37;38.03;;;26.80;;
35897;SDS011;21997;47.118;15.346;2022-10-15T04:31:03;35.97;;;26.50;;
35897;SDS011;21997;47.118;15.346;2022-10-15T04:33:28;36.83;;;26.13;;
35897;SDS011;21997;47.118;15.346;2022-10-15T04:36:01;38.13;;;27.67;;
35897;SDS011;21997;47.118;15.346;2022-10-15T04:38:30;33.73;;;26.00;;
35897;SDS011;21997;47.118;15.346;2022-10-15T04:41:03;35.00;;;27.63;;
35897;SDS011;21997;47.118;15.346;2022-10-15T04:43:31;36.73;;;25.87;;
35897;SDS011;21997;47.118;15.346;2022-10-15T04:45:57;34.43;;;25.00;;
35897;SDS011;21997;47.118;15.346;2022-10-15T04:48:23;37.83;;;28.33;;
35897;SDS011;21997;47.118;15.346;2022-10-15T04:50:49;36.80;;;26.83;;
35897;SDS011;21997;47.118;15.346;2022-10-15T04:53:15;37.47;;;26.73;;
35897;SDS011;21997;47.118;15.346;2022-10-15T04:55:41;35.93;;;26.87;;
35897;SDS011;21997;47.118;15.346;2022-10-15T04:58:06;33.07;;;26.10;;
35897;SDS011;21997;47.118;15.346;2022-10-15T05:00:32;34.97;;;26.97;;
35897;SDS011;21997;47.118;15.346;2022-10-15T05:02:57;33.30;;;26.43;;
35897;SDS011;21997;47.118;15.346;2022-10-15T05:05:23;34.03;;;26.47;;
35897;SDS011;21997;47.118;15.346;2022-10-15T05:07:49;36.07;;;27.03;;
35897;SDS011;21997;47.118;15.346;2022-10-15T05:10:14;36.10;;;27.73;;
35897;SDS011;21997;47.118;15.346;2022-10-15T05:12:40;32.60;;;26.30;;
35897;SDS011;21997;47.118;15.346;2022-10-15T05:15:05;34.23;;;25.40;;
35897;SDS011;21997;47.118;15.346;2022-10-15T05:17:31;38.60;;;27.27;;
35897;SDS011;21997;47.118;15.346;2022-10-15T05:19:57;37.63;;;25.87;;
35897;SDS011;21997;47.118;15.346;2022-10-15T05:22:22;35.53;;;26.67;;
35897;SDS011;21997;47.118;15.346;2022-10-15T05:24:48;31.57;;;24.83;;
35897;SDS011;21997;47.118;15.346;2022-10-15T05:27:13;35.77;;;26.80;;
35897;SDS011;21997;47.118;15.346;2022-10-15T05:29:40;36.60;;;27.17;;
35897;SDS011;21997;47.118;15.346;2022-10-15T05:32:05;35.80;;;28.07;;
35897;SDS011;21997;47.118;15.346;2022-10-15T05:34:32;38.07;;;30.37;;
35897;SDS011;21997;47.118;15.346;2022-10-15T05:36:58;40.73;;;29.37;;
35897;SDS011;21997;47.118;15.346;2022-10-15T05:39:23;34.17;;;27.17;;
35897;SDS011;21997;47.118;15.346;2022-10-15T05:41:49;37.17;;;28.23;;
35897;SDS011;21997;47.118;15.346;2022-10-15T05:44:14;35.33;;;28.60;;
35897;SDS011;21997;47.118;15.346;2022-10-15T05:46:40;38.83;;;29.40;;
35897;SDS011;21997;47.118;15.346;2022-10-15T05:49:05;40.57;;;27.93;;
35897;SDS011;21997;47.118;15.346;2022-10-15T05:51:31;38.47;;;28.87;;
35897;SDS011;21997;47.118;15.346;2022-10-15T05:53:56;37.87;;;28.37;;
35897;SDS011;21997;47.118;15.346;2022-10-15T05:56:22;37.30;;;27.83;;
35897;SDS011;21997;47.118;15.346;2022-10-15T05:58:48;37.00;;;27.17;;
35897;SDS011;21997;47.118;15.346;2022-10-15T06:01:14;39.40;;;28.37;;
35897;SDS011;21997;47.118;15.346;2022-10-15T06:03:40;39.53;;;29.17;;
35897;SDS011;21997;47.118;15.346;2022-10-15T06:06:25;36.77;;;27.93;;
35897;SDS011;21997;47.118;15.346;2022-10-15T06:08:51;36.93;;;28.47;;
35897;SDS011;21997;47.118;15.346;2022-10-15T06:11:17;40.00;;;28.60;;
35897;SDS011;21997;47.118;15.346;2022-10-15T06:13:43;34.83;;;28.27;;
35897;SDS011;21997;47.118;15.346;2022-10-15T06:16:10;38.67;;;30.43;;
35897;SDS011;21997;47.118;15.346;2022-10-15T06:18:36;42.90;;;31.10;;
35897;SDS011;21997;47.118;15.346;2022-10-15T06:21:03;41.73;;;31.17;;
35897;SDS011;21997;47.118;15.346;2022-10-15T06:23:28;41.30;;;32.57;;
35897;SDS011;21997;47.118;15.346;2022-10-15T06:25:54;43.60;;;31.93;;
35897;SDS011;21997;47.118;15.346;2022-10-15T06:28:20;42.87;;;32.20;;
35897;SDS011;21997;47.118;15.346;2022-10-15T06:30:45;40.40;;;31.83;;
35897;SDS011;21997;47.118;15.346;2022-10-15T06:33:10;41.03;;;30.80;;
35897;SDS011;21997;47.118;15.346;2022-10-15T06:35:36;39.30;;;29.27;;
35897;SDS011;21997;47.118;15.346;2022-10-15T06:38:01;41.83;;;32.03;;
35897;SDS011;21997;47.118;15.346;2022-10-15T06:40:27;39.30;;;31.53;;
35897;SDS011;21997;47.118;15.346;2022-10-15T06:42:53;43.37;;;31.57;;
35897;SDS011;21997;47.118;15.346;2022-10-15T06:45:18;41.30;;;31.00;;
35897;SDS011;21997;47.118;15.346;2022-10-15T06:47:43;41.87;;;29.87;;
35897;SDS011;21997;47.118;15.346;2022-10-15T06:50:09;41.63;;;30.77;;
35897;SDS011;21997;47.118;15.346;2022-10-15T06:52:35;43.60;;;31.87;;
35897;SDS011;21997;47.118;15.346;2022-10-15T06:55:01;42.17;;;31.10;;
35897;SDS011;21997;47.118;15.346;2022-10-15T06:57:26;45.10;;;32.20;;
35897;SDS011;21997;47.118;15.346;2022-10-15T06:59:52;41.87;;;32.13;;
35897;SDS011;21997;47.118;15.346;2022-10-15T07:02:17;38.97;;;31.10;;
35897;SDS011;21997;47.118;15.346;2022-10-15T07:04:43;41.17;;;31.33;;
35897;SDS011;21997;47.118;15.346;2022-10-15T07:07:09;41.60;;;33.57;;
35897;SDS011;21997;47.118;15.346;2022-10-15T07:09:34;41.63;;;33.00;;
35897;SDS011;21997;47.118;15.346;2022-10-15T07:12:00;43.23;;;32.03;;
35897;SDS011;21997;47.118;15.346;2022-10-15T07:14:26;43.87;;;32.10;;
35897;SDS011;21997;47.118;15.346;2022-10-15T07:16:51;43.57;;;31.70;;
35897;SDS011;21997;47.118;15.346;2022-10-15T07:19:17;42.10;;;31.80;;
35897;SDS011;21997;47.118;15.346;2022-10-15T07:21:42;40.37;;;29.93;;
35897;SDS011;21997;47.118;15.346;2022-10-15T07:24:08;41.80;;;31.30;;
35897;SDS011;21997;47.118;15.346;2022-10-15T07:26:33;38.30;;;31.00;;
35897;SDS011;21997;47.118;15.346;2022-10-15T07:28:59;40.00;;;31.30;;
35897;SDS011;21997;47.118;15.346;2022-10-15T07:31:25;43.47;;;31.40;;
35897;SDS011;21997;47.118;15.346;2022-10-15T07:33:50;42.33;;;32.17;;
35897;SDS011;21997;47.118;15.346;2022-10-15T07:36:16;38.60;;;30.87;;
35897;SDS011;21997;47.118;15.346;2022-10-15T07:38:41;40.30;;;31.70;;
35897;SDS011;21997;47.118;15.346;2022-10-15T07:41:08;37.17;;;31.53;;
35897;SDS011;21997;47.118;15.346;2022-10-15T07:43:34;43.97;;;33.03;;
35897;SDS011;21997;47.118;15.346;2022-10-15T07:46:00;42.63;;;32.10;;
35897;SDS011;21997;47.118;15.346;2022-10-15T07:48:26;43.20;;;32.53;;
35897;SDS011;21997;47.118;15.346;2022-10-15T07:50:55;46.53;;;34.43;;
35897;SDS011;21997;47.118;15.346;2022-10-15T07:53:21;43.47;;;32.50;;
35897;SDS011;21997;47.118;15.346;2022-10-15T07:55:47;42.50;;;33.30;;
35897;SDS011;21997;47.118;15.346;2022-10-15T07:58:12;41.60;;;32.77;;
35897;SDS011;21997;47.118;15.346;2022-10-15T08:00:38;45.27;;;33.83;;
35897;SDS011;21997;47.118;15.346;2022-10-15T08:03:03;43.93;;;34.33;;
35897;SDS011;21997;47.118;15.346;2022-10-15T08:05:29;44.57;;;33.87;;
35897;SDS011;21997;47.118;15.346;2022-10-15T08:07:54;43.63;;;34.13;;
35897;SDS011;21997;47.118;15.346;2022-10-15T08:10:20;43.40;;;34.40;;
35897;SDS011;21997;47.118;15.346;2022-10-15T08:12:45;47.07;;;35.53;;
35897;SDS011;21997;47.118;15.346;2022-10-15T08:15:11;42.50;;;34.57;;
35897;SDS011;21997;47.118;15.346;2022-10-15T08:17:36;47.13;;;34.80;;
35897;SDS011;21997;47.118;15.346;2022-10-15T08:20:02;44.10;;;35.20;;
35897;SDS011;21997;47.118;15.346;2022-10-15T08:22:28;46.27;;;35.43;;
35897;SDS011;21997;47.118;15.346;2022-10-15T08:24:53;45.67;;;35.53;;
35897;SDS011;21997;47.118;15.346;2022-10-15T08:27:19;43.73;;;34.47;;
35897;SDS011;21997;47.118;15.346;2022-10-15T08:29:44;47.80;;;35.93;;
35897;SDS011;21997;47.118;15.346;2022-10-15T08:32:11;44.07;;;35.70;;
35897;SDS011;21997;47.118;15.346;2022-10-15T08:34:36;50.60;;;36.47;;
35897;SDS011;21997;47.118;15.346;2022-10-15T08:37:02;43.43;;;34.40;;
35897;SDS011;21997;47.118;15.346;2022-10-15T08:39:27;46.57;;;35.67;;
35897;SDS011;21997;47.118;15.346;2022-10-15T08:42:00;45.47;;;35.70;;
35897;SDS011;21997;47.118;15.346;2022-10-15T08:44:39;46.60;;;35.57;;
35897;SDS011;21997;47.118;15.346;2022-10-15T08:47:11;43.67;;;36.90;;
35897;SDS011;21997;47.118;15.346;2022-10-15T08:49:48;49.17;;;37.90;;
35897;SDS011;21997;47.118;15.346;2022-10-15T08:54:40;46.53;;;35.33;;
35897;SDS011;21997;47.118;15.346;2022-10-15T08:57:32;47.07;;;35.70;;
35897;SDS011;21997;47.118;15.346;2022-10-15T09:00:04;43.83;;;33.87;;
35897;SDS011;21997;47.118;15.346;2022-10-15T09:02:38;44.03;;;34.90;;
35897;SDS011;21997;47.118;15.346;2022-10-15T09:05:21;47.90;;;34.67;;
35897;SDS011;21997;47.118;15.346;2022-10-15T09:10:46;49.97;;;36.33;;
35897;SDS011;21997;47.118;15.346;2022-10-15T09:15:54;44.80;;;35.97;;
35897;SDS011;21997;47.118;15.346;2022-10-15T09:18:23;50.70;;;38.20;;
35897;SDS011;21997;47.118;15.346;2022-10-15T09:20:51;47.67;;;36.80;;
35897;SDS011;21997;47.118;15.346;2022-10-15T09:23:22;45.80;;;37.40;;
35897;SDS011;21997;47.118;15.346;2022-10-15T09:26:02;44.73;;;36.23;;
35897;SDS011;21997;47.118;15.346;2022-10-15T09:28:48;45.67;;;34.63;;
35897;SDS011;21997;47.118;15.346;2022-10-15T09:31:19;44.60;;;34.30;;
35897;SDS011;21997;47.118;15.346;2022-10-15T09:34:10;46.40;;;35.53;;
35897;SDS011;21997;47.118;15.346;2022-10-15T09:36:45;47.07;;;36.77;;
35897;SDS011;21997;47.118;15.346;2022-10-15T09:42:09;47.70;;;34.57;;
35897;SDS011;21997;47.118;15.346;2022-10-15T09:44:55;46.17;;;36.47;;
35897;SDS011;21997;47.118;15.346;2022-10-15T09:47:29;45.87;;;36.93;;
35897;SDS011;21997;47.118;15.346;2022-10-15T09:49:56;45.70;;;34.80;;
35897;SDS011;21997;47.118;15.346;2022-10-15T09:57:52;42.83;;;33.63;;
35897;SDS011;21997;47.118;15.346;2022-10-15T10:00:19;42.10;;;33.87;;
35897;SDS011;21997;47.118;15.346;2022-10-15T10:02:44;39.20;;;34.03;;
35897;SDS011;21997;47.118;15.346;2022-10-15T10:05:30;41.27;;;32.87;;
35897;SDS011;21997;47.118;15.346;2022-10-15T10:08:15;43.37;;;35.23;;
35897;SDS011;21997;47.118;15.346;2022-10-15T10:10:53;40.97;;;34.10;;
35897;SDS011;21997;47.118;15.346;2022-10-15T10:13:21;39.27;;;31.13;;
35897;SDS011;21997;47.118;15.346;2022-10-15T10:15:52;42.57;;;33.20;;
35897;SDS011;21997;47.118;15.346;2022-10-15T10:18:20;38.10;;;31.00;;
35897;SDS011;21997;47.118;15.346;2022-10-15T10:20:59;34.57;;;29.93;;
35897;SDS011;21997;47.118;15.346;2022-10-15T10:26:02;36.50;;;29.97;;
35897;SDS011;21997;47.118;15.346;2022-10-15T10:28:49;36.80;;;31.20;;
35897;SDS011;21997;47.118;15.346;2022-10-15T10:31:17;36.60;;;29.67;;
35897;SDS011;21997;47.118;15.346;2022-10-15T10:33:46;35.03;;;30.67;;
35897;SDS011;21997;47.118;15.346;2022-10-15T10:36:24;38.60;;;30.30;;
35897;SDS011;21997;47.118;15.346;2022-10-15T10:39:02;35.30;;;30.10;;
35897;SDS011;21997;47.118;15.346;2022-10-15T10:41:54;38.43;;;30.73;;
35897;SDS011;21997;47.118;15.346;2022-10-15T10:47:17;38.47;;;29.33;;
35897;SDS011;21997;47.118;15.346;2022-10-15T10:52:27;33.27;;;28.47;;
35897;SDS011;21997;47.118;15.346;2022-10-15T10:57:54;34.97;;;29.73;;
35897;SDS011;21997;47.118;15.346;2022-10-15T11:00:20;38.10;;;28.33;;
35897;SDS011;21997;47.118;15.346;2022-10-15T11:02:49;33.13;;;28.03;;
35897;SDS011;21997;47.118;15.346;2022-10-15T11:05:16;34.30;;;27.03;;
35897;SDS011;21997;47.118;15.346;2022-10-15T11:08:32;37.27;;;27.77;;
35897;SDS011;21997;47.118;15.346;2022-10-15T11:13:16;30.43;;;26.97;;
35897;SDS011;21997;47.118;15.346;2022-10-15T11:16:08;32.23;;;26.70;;
35897;SDS011;21997;47.118;15.346;2022-10-15T11:18:55;35.57;;;26.77;;
35897;SDS011;21997;47.118;15.346;2022-10-15T11:38:16;33.87;;;28.00;;
35897;SDS011;21997;47.118;15.346;2022-10-15T11:41:09;37.60;;;29.53;;
35897;SDS011;21997;47.118;15.346;2022-10-15T11:46:26;38.10;;;31.53;;
35897;SDS011;21997;47.118;15.346;2022-10-15T11:49:06;36.60;;;29.43;;
35897;SDS011;21997;47.118;15.346;2022-10-15T11:51:58;35.07;;;30.47;;
35897;SDS011;21997;47.118;15.346;2022-10-15T11:54:44;35.07;;;30.77;;
35897;SDS011;21997;47.118;15.346;2022-10-15T11:57:21;37.93;;;29.70;;
35897;SDS011;21997;47.118;15.346;2022-10-15T11:59:51;38.03;;;30.53;;
35897;SDS011;21997;47.118;15.346;2022-10-15T12:02:30;37.90;;;30.67;;
35897;SDS011;21997;47.118;15.346;2022-10-15T12:12:48;39.63;;;30.50;;
35897;SDS011;21997;47.118;15.346;2022-10-15T12:15:31;39.03;;;30.27;;
35897;SDS011;21997;47.118;15.346;2022-10-15T12:18:37;37.87;;;31.30;;
35897;SDS011;21997;47.118;15.346;2022-10-15T12:30:10;36.50;;;31.43;;
35897;SDS011;21997;47.118;15.346;2022-10-15T12:32:44;35.53;;;29.30;;
35897;SDS011;21997;47.118;15.346;2022-10-15T12:37:40;37.60;;;30.17;;
35897;SDS011;21997;47.118;15.346;2022-10-15T12:40:29;36.80;;;29.53;;
35897;SDS011;21997;47.118;15.346;2022-10-15T12:45:36;36.70;;;29.53;;
35897;SDS011;21997;47.118;15.346;2022-10-15T12:50:28;36.13;;;30.70;;
35897;SDS011;21997;47.118;15.346;2022-10-15T12:58:35;39.60;;;29.63;;
35897;SDS011;21997;47.118;15.346;2022-10-15T13:03:45;45.13;;;34.90;;
35897;SDS011;21997;47.118;15.346;2022-10-15T13:08:46;35.17;;;30.37;;
35897;SDS011;21997;47.118;15.346;2022-10-15T13:11:28;36.80;;;28.73;;
35897;SDS011;21997;47.118;15.346;2022-10-15T13:13:59;35.83;;;29.60;;
35897;SDS011;21997;47.118;15.346;2022-10-15T13:16:27;35.67;;;29.83;;
35897;SDS011;21997;47.118;15.346;2022-10-15T13:18:53;38.97;;;31.23;;
35897;SDS011;21997;47.118;15.346;2022-10-15T13:21:20;32.73;;;28.87;;
35897;SDS011;21997;47.118;15.346;2022-10-15T13:23:46;33.90;;;28.70;;
35897;SDS011;21997;47.118;15.346;2022-10-15T13:26:23;39.03;;;29.70;;
35897;SDS011;21997;47.118;15.346;2022-10-15T13:28:55;36.40;;;29.70;;
35897;SDS011;21997;47.118;15.346;2022-10-15T13:31:25;33.37;;;28.87;;
35897;SDS011;21997;47.118;15.346;2022-10-15T13:33:57;34.30;;;29.00;;
35897;SDS011;21997;47.118;15.346;2022-10-15T13:36:25;33.93;;;27.93;;
35897;SDS011;21997;47.118;15.346;2022-10-15T13:38:58;32.53;;;28.97;;
35897;SDS011;21997;47.118;15.346;2022-10-15T13:41:29;36.53;;;32.17;;
35897;SDS011;21997;47.118;15.346;2022-10-15T13:43:58;34.57;;;29.53;;
35897;SDS011;21997;47.118;15.346;2022-10-15T13:46:32;34.87;;;29.37;;
35897;SDS011;21997;47.118;15.346;2022-10-15T13:49:01;33.03;;;28.00;;
35897;SDS011;21997;47.118;15.346;2022-10-15T13:51:35;33.70;;;27.90;;
35897;SDS011;21997;47.118;15.346;2022-10-15T13:54:06;34.10;;;28.87;;
35897;SDS011;21997;47.118;15.346;2022-10-15T13:56:33;34.73;;;28.67;;
35897;SDS011;21997;47.118;15.346;2022-10-15T13:58:59;34.63;;;29.47;;
35897;SDS011;21997;47.118;15.346;2022-10-15T14:01:26;39.63;;;30.27;;
35897;SDS011;21997;47.118;15.346;2022-10-15T14:03:56;32.50;;;29.10;;
35897;SDS011;21997;47.118;15.346;2022-10-15T14:06:24;30.33;;;27.03;;
35897;SDS011;21997;47.118;15.346;2022-10-15T14:08:51;31.67;;;27.57;;
35897;SDS011;21997;47.118;15.346;2022-10-15T14:11:20;31.07;;;26.83;;
35897;SDS011;21997;47.118;15.346;2022-10-15T14:13:50;31.73;;;27.43;;
35897;SDS011;21997;47.118;15.346;2022-10-15T14:18:50;31.47;;;26.77;;
35897;SDS011;21997;47.118;15.346;2022-10-15T14:21:19;31.87;;;27.77;;
35897;SDS011;21997;47.118;15.346;2022-10-15T14:23:46;34.93;;;27.30;;
35897;SDS011;21997;47.118;15.346;2022-10-15T14:26:12;31.87;;;28.53;;
35897;SDS011;21997;47.118;15.346;2022-10-15T14:28:39;35.50;;;28.07;;
35897;SDS011;21997;47.118;15.346;2022-10-15T14:31:05;33.23;;;26.47;;
35897;SDS011;21997;47.118;15.346;2022-10-15T14:36:21;33.47;;;28.33;;
35897;SDS011;21997;47.118;15.346;2022-10-15T14:38:47;33.10;;;27.93;;
35897;SDS011;21997;47.118;15.346;2022-10-15T14:41:24;35.87;;;28.37;;
35897;SDS011;21997;47.118;15.346;2022-10-15T14:46:38;34.93;;;28.50;;
35897;SDS011;21997;47.118;15.346;2022-10-15T14:49:19;37.17;;;29.30;;
35897;SDS011;21997;47.118;15.346;2022-10-15T14:51:57;36.57;;;30.90;;
35897;SDS011;21997;47.118;15.346;2022-10-15T14:54:39;32.80;;;29.17;;
35897;SDS011;21997;47.118;15.346;2022-10-15T14:57:21;35.17;;;28.93;;
35897;SDS011;21997;47.118;15.346;2022-10-15T14:59:50;32.93;;;28.80;;
35897;SDS011;21997;47.118;15.346;2022-10-15T15:02:16;30.77;;;27.40;;
35897;SDS011;21997;47.118;15.346;2022-10-15T15:04:44;30.80;;;26.97;;
35897;SDS011;21997;47.118;15.346;2022-10-15T15:07:15;31.30;;;27.40;;
35897;SDS011;21997;47.118;15.346;2022-10-15T15:09:45;37.93;;;26.33;;
35897;SDS011;21997;47.118;15.346;2022-10-15T15:12:20;30.93;;;27.43;;
35897;SDS011;21997;47.118;15.346;2022-10-15T15:14:47;36.63;;;26.60;;
35897;SDS011;21997;47.118;15.346;2022-10-15T15:17:13;34.90;;;27.97;;
35897;SDS011;21997;47.118;15.346;2022-10-15T15:19:40;38.93;;;31.33;;
35897;SDS011;21997;47.118;15.346;2022-10-15T15:22:07;32.87;;;28.40;;
35897;SDS011;21997;47.118;15.346;2022-10-15T15:24:35;33.27;;;27.23;;
35897;SDS011;21997;47.118;15.346;2022-10-15T15:27:01;38.63;;;30.63;;
35897;SDS011;21997;47.118;15.346;2022-10-15T15:29:26;42.57;;;33.63;;
35897;SDS011;21997;47.118;15.346;2022-10-15T15:31:52;44.97;;;34.70;;
35897;SDS011;21997;47.118;15.346;2022-10-15T15:34:18;39.47;;;31.10;;
35897;SDS011;21997;47.118;15.346;2022-10-15T15:36:43;38.07;;;30.77;;
35897;SDS011;21997;47.118;15.346;2022-10-15T15:39:09;38.17;;;29.33;;
35897;SDS011;21997;47.118;15.346;2022-10-15T15:41:34;37.63;;;30.53;;
35897;SDS011;21997;47.118;15.346;2022-10-15T15:44:00;37.07;;;30.37;;
35897;SDS011;21997;47.118;15.346;2022-10-15T15:46:28;36.30;;;30.33;;
35897;SDS011;21997;47.118;15.346;2022-10-15T15:48:54;40.03;;;32.37;;
35897;SDS011;21997;47.118;15.346;2022-10-15T15:51:23;42.63;;;34.27;;
35897;SDS011;21997;47.118;15.346;2022-10-15T15:53:50;46.27;;;37.83;;
35897;SDS011;21997;47.118;15.346;2022-10-15T15:56:16;40.67;;;33.13;;
35897;SDS011;21997;47.118;15.346;2022-10-15T15:58:41;37.33;;;30.20;;
35897;SDS011;21997;47.118;15.346;2022-10-15T16:01:07;41.83;;;30.03;;
35897;SDS011;21997;47.118;15.346;2022-10-15T16:03:32;32.00;;;28.40;;
35897;SDS011;21997;47.118;15.346;2022-10-15T16:05:58;34.00;;;29.17;;
35897;SDS011;21997;47.118;15.346;2022-10-15T16:08:23;34.57;;;27.80;;
35897;SDS011;21997;47.118;15.346;2022-10-15T16:10:48;35.93;;;27.37;;
35897;SDS011;21997;47.118;15.346;2022-10-15T16:13:14;39.87;;;27.70;;
35897;SDS011;21997;47.118;15.346;2022-10-15T16:15:39;34.90;;;27.07;;
35897;SDS011;21997;47.118;15.346;2022-10-15T16:18:05;38.10;;;27.63;;
35897;SDS011;21997;47.118;15.346;2022-10-15T16:20:30;32.63;;;28.10;;